sensor_id;sensor_type;location;lat;lon;timestamp;temperature;humidity
32201;DHT22;18701;45.588;5.288;2024-03-07T00:02:19;5.60;99.90
32201;DHT22;18701;45.588;5.288;2024-03-07T00:04:45;5.70;99.90
32201;DHT22;18701;45.588;5.288;2024-03-07T00:07:11;5.70;99.90
32201;DHT22;18701;45.588;5.288;2024-03-07T00:09:37;5.80;99.90
32201;DHT22;18701;45.588;5.288;2024-03-07T00:12:03;5.70;99.90
32201;DHT22;18701;45.588;5.288;2024-03-07T00:14:31;5.60;99.90
32201;DHT22;18701;45.588;5.288;2024-03-07T00:16:57;5.50;99.90
32201;DHT22;18701;45.588;5.288;2024-03-07T00:19:24;5.50;99.90
32201;DHT22;18701;45.588;5.288;2024-03-07T00:21:56;5.50;99.90
32201;DHT22;18701;45.588;5.288;2024-03-07T00:24:22;5.50;99.90
32201;DHT22;18701;45.588;5.288;2024-03-07T00:26:48;5.50;99.90
32201;DHT22;18701;45.588;5.288;2024-03-07T00:29:20;5.40;99.90
32201;DHT22;18701;45.588;5.288;2024-03-07T00:31:46;5.40;99.90
32201;DHT22;18701;45.588;5.288;2024-03-07T00:34:15;5.40;99.90
32201;DHT22;18701;45.588;5.288;2024-03-07T00:36:42;5.20;99.90
32201;DHT22;18701;45.588;5.288;2024-03-07T00:39:08;5.20;99.90
32201;DHT22;18701;45.588;5.288;2024-03-07T00:41:34;5.20;99.90
32201;DHT22;18701;45.588;5.288;2024-03-07T00:44:00;5.20;99.90
32201;DHT22;18701;45.588;5.288;2024-03-07T00:46:26;5.30;99.90
32201;DHT22;18701;45.588;5.288;2024-03-07T00:48:51;5.20;99.90
32201;DHT22;18701;45.588;5.288;2024-03-07T00:51:17;5.20;99.90
32201;DHT22;18701;45.588;5.288;2024-03-07T00:53:42;5.20;99.90
32201;DHT22;18701;45.588;5.288;2024-03-07T00:56:08;5.20;99.90
32201;DHT22;18701;45.588;5.288;2024-03-07T00:58:33;5.10;99.90
32201;DHT22;18701;45.588;5.288;2024-03-07T01:01:00;5.00;99.90
32201;DHT22;18701;45.588;5.288;2024-03-07T01:03:26;5.00;99.90
32201;DHT22;18701;45.588;5.288;2024-03-07T01:05:52;5.00;99.90
32201;DHT22;18701;45.588;5.288;2024-03-07T01:08:18;5.10;99.90
32201;DHT22;18701;45.588;5.288;2024-03-07T01:10:43;5.00;99.90
32201;DHT22;18701;45.588;5.288;2024-03-07T01:13:09;4.90;99.90
32201;DHT22;18701;45.588;5.288;2024-03-07T01:15:41;4.80;99.90
32201;DHT22;18701;45.588;5.288;2024-03-07T01:18:06;4.80;99.90
32201;DHT22;18701;45.588;5.288;2024-03-07T01:20:32;4.70;99.90
32201;DHT22;18701;45.588;5.288;2024-03-07T01:22:58;4.60;99.90
32201;DHT22;18701;45.588;5.288;2024-03-07T01:25:23;4.80;99.90
32201;DHT22;18701;45.588;5.288;2024-03-07T01:27:49;4.90;99.90
32201;DHT22;18701;45.588;5.288;2024-03-07T01:30:16;4.70;99.90
32201;DHT22;18701;45.588;5.288;2024-03-07T01:32:42;4.80;99.90
32201;DHT22;18701;45.588;5.288;2024-03-07T01:35:08;4.90;99.90
32201;DHT22;18701;45.588;5.288;2024-03-07T01:37:34;5.00;99.90
32201;DHT22;18701;45.588;5.288;2024-03-07T01:39:59;4.90;99.90
32201;DHT22;18701;45.588;5.288;2024-03-07T01:42:25;4.90;99.90
32201;DHT22;18701;45.588;5.288;2024-03-07T01:44:50;4.90;99.90
32201;DHT22;18701;45.588;5.288;2024-03-07T01:47:17;4.80;99.90
32201;DHT22;18701;45.588;5.288;2024-03-07T01:49:43;4.80;99.90
32201;DHT22;18701;45.588;5.288;2024-03-07T01:52:09;4.80;99.90
32201;DHT22;18701;45.588;5.288;2024-03-07T01:54:35;4.80;99.90
32201;DHT22;18701;45.588;5.288;2024-03-07T01:57:01;4.80;99.90
32201;DHT22;18701;45.588;5.288;2024-03-07T01:59:28;4.60;99.90
32201;DHT22;18701;45.588;5.288;2024-03-07T02:01:56;4.60;99.90
32201;DHT22;18701;45.588;5.288;2024-03-07T02:04:22;4.60;99.90
32201;DHT22;18701;45.588;5.288;2024-03-07T02:06:49;4.50;99.90
32201;DHT22;18701;45.588;5.288;2024-03-07T02:09:15;4.50;99.90
32201;DHT22;18701;45.588;5.288;2024-03-07T02:11:41;4.50;99.90
32201;DHT22;18701;45.588;5.288;2024-03-07T02:14:06;4.40;99.90
32201;DHT22;18701;45.588;5.288;2024-03-07T02:16:32;4.60;99.90
32201;DHT22;18701;45.588;5.288;2024-03-07T02:18:57;4.60;99.90
32201;DHT22;18701;45.588;5.288;2024-03-07T02:21:25;4.50;99.90
32201;DHT22;18701;45.588;5.288;2024-03-07T02:23:50;4.50;99.90
32201;DHT22;18701;45.588;5.288;2024-03-07T02:26:16;4.40;99.90
32201;DHT22;18701;45.588;5.288;2024-03-07T02:28:43;4.40;99.90
32201;DHT22;18701;45.588;5.288;2024-03-07T02:31:08;4.40;99.90
32201;DHT22;18701;45.588;5.288;2024-03-07T02:33:34;4.40;99.90
32201;DHT22;18701;45.588;5.288;2024-03-07T02:35:59;4.40;99.90
32201;DHT22;18701;45.588;5.288;2024-03-07T02:38:25;4.20;99.90
32201;DHT22;18701;45.588;5.288;2024-03-07T02:40:51;4.20;99.90
32201;DHT22;18701;45.588;5.288;2024-03-07T02:43:17;4.10;99.90
32201;DHT22;18701;45.588;5.288;2024-03-07T02:45:43;3.80;99.90
32201;DHT22;18701;45.588;5.288;2024-03-07T02:48:08;4.00;99.90
32201;DHT22;18701;45.588;5.288;2024-03-07T02:50:37;4.10;99.90
32201;DHT22;18701;45.588;5.288;2024-03-07T02:53:06;4.20;99.90
32201;DHT22;18701;45.588;5.288;2024-03-07T02:55:33;4.20;99.90
32201;DHT22;18701;45.588;5.288;2024-03-07T02:57:59;4.10;99.90
32201;DHT22;18701;45.588;5.288;2024-03-07T03:00:25;4.10;99.90
32201;DHT22;18701;45.588;5.288;2024-03-07T03:02:56;4.00;99.90
32201;DHT22;18701;45.588;5.288;2024-03-07T03:05:22;3.90;99.90
32201;DHT22;18701;45.588;5.288;2024-03-07T03:07:48;3.90;99.90
32201;DHT22;18701;45.588;5.288;2024-03-07T03:10:24;3.90;99.90
32201;DHT22;18701;45.588;5.288;2024-03-07T03:12:57;4.00;99.90
32201;DHT22;18701;45.588;5.288;2024-03-07T03:15:24;4.00;99.90
32201;DHT22;18701;45.588;5.288;2024-03-07T03:17:50;4.10;99.90
32201;DHT22;18701;45.588;5.288;2024-03-07T03:20:17;4.00;99.90
32201;DHT22;18701;45.588;5.288;2024-03-07T03:22:59;4.00;99.90
32201;DHT22;18701;45.588;5.288;2024-03-07T03:25:25;4.00;99.90
32201;DHT22;18701;45.588;5.288;2024-03-07T03:27:51;4.00;99.90
32201;DHT22;18701;45.588;5.288;2024-03-07T03:30:17;4.00;99.90
32201;DHT22;18701;45.588;5.288;2024-03-07T03:32:47;3.90;99.90
32201;DHT22;18701;45.588;5.288;2024-03-07T03:35:14;3.60;99.90
32201;DHT22;18701;45.588;5.288;2024-03-07T03:37:45;3.70;99.90
32201;DHT22;18701;45.588;5.288;2024-03-07T03:40:11;3.70;99.90
32201;DHT22;18701;45.588;5.288;2024-03-07T03:42:39;3.80;99.90
32201;DHT22;18701;45.588;5.288;2024-03-07T03:45:05;3.80;99.90
32201;DHT22;18701;45.588;5.288;2024-03-07T03:47:41;3.70;99.90
32201;DHT22;18701;45.588;5.288;2024-03-07T03:50:08;3.80;99.90
32201;DHT22;18701;45.588;5.288;2024-03-07T03:52:34;3.70;99.90
32201;DHT22;18701;45.588;5.288;2024-03-07T03:55:04;3.60;99.90
32201;DHT22;18701;45.588;5.288;2024-03-07T03:57:31;3.70;99.90
32201;DHT22;18701;45.588;5.288;2024-03-07T03:59:58;3.70;99.90
32201;DHT22;18701;45.588;5.288;2024-03-07T04:02:25;3.70;99.90
32201;DHT22;18701;45.588;5.288;2024-03-07T04:04:52;3.60;99.90
32201;DHT22;18701;45.588;5.288;2024-03-07T04:07:18;3.60;99.90
32201;DHT22;18701;45.588;5.288;2024-03-07T04:09:45;3.50;99.90
32201;DHT22;18701;45.588;5.288;2024-03-07T04:12:12;3.40;99.90
32201;DHT22;18701;45.588;5.288;2024-03-07T04:14:39;3.40;99.90
32201;DHT22;18701;45.588;5.288;2024-03-07T04:17:06;3.50;99.90
32201;DHT22;18701;45.588;5.288;2024-03-07T04:19:37;3.50;99.90
32201;DHT22;18701;45.588;5.288;2024-03-07T04:22:04;3.50;99.90
32201;DHT22;18701;45.588;5.288;2024-03-07T04:24:32;3.50;99.90
32201;DHT22;18701;45.588;5.288;2024-03-07T04:27:02;3.40;99.90
32201;DHT22;18701;45.588;5.288;2024-03-07T04:29:32;3.50;99.90
32201;DHT22;18701;45.588;5.288;2024-03-07T04:31:58;3.50;99.90
32201;DHT22;18701;45.588;5.288;2024-03-07T04:34:24;3.50;99.90
32201;DHT22;18701;45.588;5.288;2024-03-07T04:36:50;3.40;99.90
32201;DHT22;18701;45.588;5.288;2024-03-07T04:39:15;3.40;99.90
32201;DHT22;18701;45.588;5.288;2024-03-07T04:41:54;3.40;99.90
32201;DHT22;18701;45.588;5.288;2024-03-07T04:44:20;3.20;99.90
32201;DHT22;18701;45.588;5.288;2024-03-07T04:46:49;3.30;99.90
32201;DHT22;18701;45.588;5.288;2024-03-07T04:49:23;3.30;99.90
32201;DHT22;18701;45.588;5.288;2024-03-07T04:51:56;3.30;99.90
32201;DHT22;18701;45.588;5.288;2024-03-07T04:54:22;3.20;99.90
32201;DHT22;18701;45.588;5.288;2024-03-07T04:56:49;3.10;99.90
32201;DHT22;18701;45.588;5.288;2024-03-07T04:59:16;3.30;99.90
32201;DHT22;18701;45.588;5.288;2024-03-07T05:01:42;3.30;99.90
32201;DHT22;18701;45.588;5.288;2024-03-07T05:04:08;3.30;99.90
32201;DHT22;18701;45.588;5.288;2024-03-07T05:06:34;3.20;99.90
32201;DHT22;18701;45.588;5.288;2024-03-07T05:09:03;3.30;99.90
32201;DHT22;18701;45.588;5.288;2024-03-07T05:11:30;3.00;99.90
32201;DHT22;18701;45.588;5.288;2024-03-07T05:13:56;3.20;99.90
32201;DHT22;18701;45.588;5.288;2024-03-07T05:16:23;3.10;99.90
32201;DHT22;18701;45.588;5.288;2024-03-07T05:18:49;3.00;99.90
32201;DHT22;18701;45.588;5.288;2024-03-07T05:21:16;2.90;99.90
32201;DHT22;18701;45.588;5.288;2024-03-07T05:24:10;3.00;99.90
32201;DHT22;18701;45.588;5.288;2024-03-07T05:26:36;2.90;99.90
32201;DHT22;18701;45.588;5.288;2024-03-07T05:29:08;3.00;99.90
32201;DHT22;18701;45.588;5.288;2024-03-07T05:31:36;3.00;99.90
32201;DHT22;18701;45.588;5.288;2024-03-07T05:34:02;3.10;99.90
32201;DHT22;18701;45.588;5.288;2024-03-07T05:36:37;3.10;99.90
32201;DHT22;18701;45.588;5.288;2024-03-07T05:39:10;3.00;99.90
32201;DHT22;18701;45.588;5.288;2024-03-07T05:41:43;3.10;99.90
32201;DHT22;18701;45.588;5.288;2024-03-07T05:44:10;3.00;99.90
32201;DHT22;18701;45.588;5.288;2024-03-07T05:46:37;3.10;99.90
32201;DHT22;18701;45.588;5.288;2024-03-07T05:49:09;3.10;99.90
32201;DHT22;18701;45.588;5.288;2024-03-07T05:51:35;3.10;99.90
32201;DHT22;18701;45.588;5.288;2024-03-07T05:54:01;3.00;99.90
32201;DHT22;18701;45.588;5.288;2024-03-07T05:56:27;3.00;99.90
32201;DHT22;18701;45.588;5.288;2024-03-07T05:58:53;3.10;99.90
32201;DHT22;18701;45.588;5.288;2024-03-07T06:01:19;3.00;99.90
32201;DHT22;18701;45.588;5.288;2024-03-07T06:03:44;3.00;99.90
32201;DHT22;18701;45.588;5.288;2024-03-07T06:06:11;2.90;99.90
32201;DHT22;18701;45.588;5.288;2024-03-07T06:08:38;2.80;99.90
32201;DHT22;18701;45.588;5.288;2024-03-07T06:11:07;2.80;99.90
32201;DHT22;18701;45.588;5.288;2024-03-07T06:13:33;2.80;99.90
32201;DHT22;18701;45.588;5.288;2024-03-07T06:15:58;2.90;99.90
32201;DHT22;18701;45.588;5.288;2024-03-07T06:18:26;2.80;99.90
32201;DHT22;18701;45.588;5.288;2024-03-07T06:20:56;2.70;99.90
32201;DHT22;18701;45.588;5.288;2024-03-07T06:23:22;2.90;99.90
32201;DHT22;18701;45.588;5.288;2024-03-07T06:25:47;2.80;99.90
32201;DHT22;18701;45.588;5.288;2024-03-07T06:28:16;2.70;99.90
32201;DHT22;18701;45.588;5.288;2024-03-07T06:30:44;2.60;99.90
32201;DHT22;18701;45.588;5.288;2024-03-07T06:33:13;2.60;99.90
32201;DHT22;18701;45.588;5.288;2024-03-07T06:35:40;2.80;99.90
32201;DHT22;18701;45.588;5.288;2024-03-07T06:38:07;2.70;99.90
32201;DHT22;18701;45.588;5.288;2024-03-07T06:40:36;2.80;99.90
32201;DHT22;18701;45.588;5.288;2024-03-07T06:43:03;2.70;99.90
32201;DHT22;18701;45.588;5.288;2024-03-07T06:45:38;2.80;99.90
32201;DHT22;18701;45.588;5.288;2024-03-07T06:48:07;2.90;99.90
32201;DHT22;18701;45.588;5.288;2024-03-07T06:50:37;3.10;99.90
32201;DHT22;18701;45.588;5.288;2024-03-07T06:53:03;3.10;99.90
32201;DHT22;18701;45.588;5.288;2024-03-07T06:55:29;2.80;99.90
32201;DHT22;18701;45.588;5.288;2024-03-07T06:57:55;3.10;99.90
32201;DHT22;18701;45.588;5.288;2024-03-07T07:00:20;3.10;99.90
32201;DHT22;18701;45.588;5.288;2024-03-07T07:02:47;3.20;99.90
32201;DHT22;18701;45.588;5.288;2024-03-07T07:05:13;3.30;99.90
32201;DHT22;18701;45.588;5.288;2024-03-07T07:07:50;3.30;99.90
32201;DHT22;18701;45.588;5.288;2024-03-07T07:10:18;3.30;99.90
32201;DHT22;18701;45.588;5.288;2024-03-07T07:12:48;3.50;99.90
32201;DHT22;18701;45.588;5.288;2024-03-07T07:15:15;3.40;99.90
32201;DHT22;18701;45.588;5.288;2024-03-07T07:17:42;3.40;99.90
32201;DHT22;18701;45.588;5.288;2024-03-07T07:20:10;3.50;99.90
32201;DHT22;18701;45.588;5.288;2024-03-07T07:22:39;3.50;99.90
32201;DHT22;18701;45.588;5.288;2024-03-07T07:25:05;3.40;99.90
32201;DHT22;18701;45.588;5.288;2024-03-07T07:27:42;3.40;99.90
32201;DHT22;18701;45.588;5.288;2024-03-07T07:30:09;3.40;99.90
32201;DHT22;18701;45.588;5.288;2024-03-07T07:32:35;3.40;99.90
32201;DHT22;18701;45.588;5.288;2024-03-07T07:35:02;3.50;99.90
32201;DHT22;18701;45.588;5.288;2024-03-07T07:37:27;3.70;99.90
32201;DHT22;18701;45.588;5.288;2024-03-07T07:39:53;3.70;99.90
32201;DHT22;18701;45.588;5.288;2024-03-07T07:42:18;3.70;99.90
32201;DHT22;18701;45.588;5.288;2024-03-07T07:44:45;3.80;99.90
32201;DHT22;18701;45.588;5.288;2024-03-07T07:47:10;3.90;99.90
32201;DHT22;18701;45.588;5.288;2024-03-07T07:49:37;4.00;99.90
32201;DHT22;18701;45.588;5.288;2024-03-07T07:52:04;4.10;99.90
32201;DHT22;18701;45.588;5.288;2024-03-07T07:54:30;4.10;99.90
32201;DHT22;18701;45.588;5.288;2024-03-07T07:56:55;4.20;99.90
32201;DHT22;18701;45.588;5.288;2024-03-07T07:59:21;4.30;99.90
32201;DHT22;18701;45.588;5.288;2024-03-07T08:01:47;4.30;99.90
32201;DHT22;18701;45.588;5.288;2024-03-07T08:04:12;4.40;99.90
32201;DHT22;18701;45.588;5.288;2024-03-07T08:06:38;4.50;99.90
32201;DHT22;18701;45.588;5.288;2024-03-07T08:09:04;4.70;99.90
32201;DHT22;18701;45.588;5.288;2024-03-07T08:11:35;4.80;99.90
32201;DHT22;18701;45.588;5.288;2024-03-07T08:14:02;5.10;99.90
32201;DHT22;18701;45.588;5.288;2024-03-07T08:16:28;5.10;99.90
32201;DHT22;18701;45.588;5.288;2024-03-07T08:18:53;5.20;99.90
32201;DHT22;18701;45.588;5.288;2024-03-07T08:21:19;5.10;99.90
32201;DHT22;18701;45.588;5.288;2024-03-07T08:23:44;5.30;99.90
32201;DHT22;18701;45.588;5.288;2024-03-07T08:26:11;5.30;99.90
32201;DHT22;18701;45.588;5.288;2024-03-07T08:28:37;5.50;99.90
32201;DHT22;18701;45.588;5.288;2024-03-07T08:31:03;5.60;99.90
32201;DHT22;18701;45.588;5.288;2024-03-07T08:33:29;5.80;99.90
32201;DHT22;18701;45.588;5.288;2024-03-07T08:35:58;5.80;99.90
32201;DHT22;18701;45.588;5.288;2024-03-07T08:38:24;6.00;99.90
32201;DHT22;18701;45.588;5.288;2024-03-07T08:40:50;6.10;99.90
32201;DHT22;18701;45.588;5.288;2024-03-07T08:43:16;6.10;99.90
32201;DHT22;18701;45.588;5.288;2024-03-07T08:45:41;6.20;99.90
32201;DHT22;18701;45.588;5.288;2024-03-07T08:48:07;6.40;99.90
32201;DHT22;18701;45.588;5.288;2024-03-07T08:50:34;6.50;99.90
32201;DHT22;18701;45.588;5.288;2024-03-07T08:53:00;6.60;99.90
32201;DHT22;18701;45.588;5.288;2024-03-07T08:55:26;6.80;99.90
32201;DHT22;18701;45.588;5.288;2024-03-07T08:57:52;6.80;99.90
32201;DHT22;18701;45.588;5.288;2024-03-07T09:00:19;7.00;99.90
32201;DHT22;18701;45.588;5.288;2024-03-07T09:02:54;7.20;99.90
32201;DHT22;18701;45.588;5.288;2024-03-07T09:05:21;7.40;99.90
32201;DHT22;18701;45.588;5.288;2024-03-07T09:07:48;7.30;99.90
32201;DHT22;18701;45.588;5.288;2024-03-07T09:10:14;7.40;99.90
32201;DHT22;18701;45.588;5.288;2024-03-07T09:12:40;7.60;99.90
32201;DHT22;18701;45.588;5.288;2024-03-07T09:15:07;7.50;99.90
32201;DHT22;18701;45.588;5.288;2024-03-07T09:17:33;7.70;99.90
32201;DHT22;18701;45.588;5.288;2024-03-07T09:19:58;7.80;99.90
32201;DHT22;18701;45.588;5.288;2024-03-07T09:22:24;7.90;99.90
32201;DHT22;18701;45.588;5.288;2024-03-07T09:24:50;8.00;99.90
32201;DHT22;18701;45.588;5.288;2024-03-07T09:27:17;8.20;99.90
32201;DHT22;18701;45.588;5.288;2024-03-07T09:29:45;8.10;99.90
32201;DHT22;18701;45.588;5.288;2024-03-07T09:32:13;8.40;99.90
32201;DHT22;18701;45.588;5.288;2024-03-07T09:34:38;8.60;99.90
32201;DHT22;18701;45.588;5.288;2024-03-07T09:37:04;8.60;99.90
32201;DHT22;18701;45.588;5.288;2024-03-07T09:39:32;8.80;99.90
32201;DHT22;18701;45.588;5.288;2024-03-07T09:42:03;9.10;99.90
32201;DHT22;18701;45.588;5.288;2024-03-07T09:44:29;9.30;99.90
32201;DHT22;18701;45.588;5.288;2024-03-07T09:46:57;9.20;99.90
32201;DHT22;18701;45.588;5.288;2024-03-07T09:49:25;9.30;99.90
32201;DHT22;18701;45.588;5.288;2024-03-07T09:51:55;9.60;99.90
32201;DHT22;18701;45.588;5.288;2024-03-07T09:54:22;9.60;99.90
32201;DHT22;18701;45.588;5.288;2024-03-07T09:56:53;9.90;99.90
32201;DHT22;18701;45.588;5.288;2024-03-07T09:59:20;10.00;99.90
32201;DHT22;18701;45.588;5.288;2024-03-07T10:01:51;10.10;99.90
32201;DHT22;18701;45.588;5.288;2024-03-07T10:04:29;10.30;99.90
32201;DHT22;18701;45.588;5.288;2024-03-07T10:06:55;9.90;99.90
32201;DHT22;18701;45.588;5.288;2024-03-07T10:09:22;10.30;99.90
32201;DHT22;18701;45.588;5.288;2024-03-07T10:11:57;10.60;99.90
32201;DHT22;18701;45.588;5.288;2024-03-07T10:14:23;10.80;99.90
32201;DHT22;18701;45.588;5.288;2024-03-07T10:16:49;11.00;99.90
32201;DHT22;18701;45.588;5.288;2024-03-07T10:19:14;11.20;99.90
32201;DHT22;18701;45.588;5.288;2024-03-07T10:21:41;11.20;99.90
32201;DHT22;18701;45.588;5.288;2024-03-07T10:24:08;11.30;99.90
32201;DHT22;18701;45.588;5.288;2024-03-07T10:26:39;11.30;99.90
32201;DHT22;18701;45.588;5.288;2024-03-07T10:29:05;11.60;99.90
32201;DHT22;18701;45.588;5.288;2024-03-07T10:31:34;11.70;99.90
32201;DHT22;18701;45.588;5.288;2024-03-07T10:34:00;11.90;99.90
32201;DHT22;18701;45.588;5.288;2024-03-07T10:36:30;11.60;99.90
32201;DHT22;18701;45.588;5.288;2024-03-07T10:38:59;11.60;99.90
32201;DHT22;18701;45.588;5.288;2024-03-07T10:42:00;11.90;99.90
32201;DHT22;18701;45.588;5.288;2024-03-07T10:44:31;12.20;99.90
32201;DHT22;18701;45.588;5.288;2024-03-07T10:46:58;12.20;99.90
32201;DHT22;18701;45.588;5.288;2024-03-07T10:49:26;12.30;99.90
32201;DHT22;18701;45.588;5.288;2024-03-07T10:52:09;12.50;99.90
32201;DHT22;18701;45.588;5.288;2024-03-07T10:59:38;12.40;99.90
32201;DHT22;18701;45.588;5.288;2024-03-07T11:04:47;12.50;99.90
32201;DHT22;18701;45.588;5.288;2024-03-07T11:07:14;12.60;99.90
32201;DHT22;18701;45.588;5.288;2024-03-07T11:09:40;12.60;99.90
32201;DHT22;18701;45.588;5.288;2024-03-07T11:12:08;12.70;99.90
32201;DHT22;18701;45.588;5.288;2024-03-07T11:14:38;12.90;99.90
32201;DHT22;18701;45.588;5.288;2024-03-07T11:17:05;12.70;99.90
32201;DHT22;18701;45.588;5.288;2024-03-07T11:19:34;12.70;99.90
32201;DHT22;18701;45.588;5.288;2024-03-07T11:22:02;12.70;99.90
32201;DHT22;18701;45.588;5.288;2024-03-07T11:24:41;13.00;99.90
32201;DHT22;18701;45.588;5.288;2024-03-07T11:27:09;13.30;99.60
32201;DHT22;18701;45.588;5.288;2024-03-07T11:29:48;13.80;99.50
32201;DHT22;18701;45.588;5.288;2024-03-07T11:32:19;14.80;99.00
32201;DHT22;18701;45.588;5.288;2024-03-07T11:34:47;18.40;95.70
32201;DHT22;18701;45.588;5.288;2024-03-07T11:37:38;20.00;91.30
32201;DHT22;18701;45.588;5.288;2024-03-07T11:40:10;16.70;91.60
32201;DHT22;18701;45.588;5.288;2024-03-07T11:42:44;16.00;93.00
32201;DHT22;18701;45.588;5.288;2024-03-07T11:45:12;15.60;92.90
32201;DHT22;18701;45.588;5.288;2024-03-07T11:47:46;15.00;93.00
32201;DHT22;18701;45.588;5.288;2024-03-07T11:50:11;15.40;93.20
32201;DHT22;18701;45.588;5.288;2024-03-07T11:52:38;15.70;93.90
32201;DHT22;18701;45.588;5.288;2024-03-07T11:55:07;15.60;93.10
32201;DHT22;18701;45.588;5.288;2024-03-07T11:57:33;15.90;93.20
32201;DHT22;18701;45.588;5.288;2024-03-07T11:59:59;15.50;93.00
32201;DHT22;18701;45.588;5.288;2024-03-07T12:02:33;16.00;92.40
32201;DHT22;18701;45.588;5.288;2024-03-07T12:04:59;15.90;92.20
32201;DHT22;18701;45.588;5.288;2024-03-07T12:07:26;15.90;92.40
32201;DHT22;18701;45.588;5.288;2024-03-07T12:09:52;16.20;91.80
32201;DHT22;18701;45.588;5.288;2024-03-07T12:12:21;16.50;92.20
32201;DHT22;18701;45.588;5.288;2024-03-07T12:14:51;16.40;92.20
32201;DHT22;18701;45.588;5.288;2024-03-07T12:17:23;16.60;93.20
32201;DHT22;18701;45.588;5.288;2024-03-07T12:19:49;16.30;93.10
32201;DHT22;18701;45.588;5.288;2024-03-07T12:22:21;16.20;92.10
32201;DHT22;18701;45.588;5.288;2024-03-07T12:25:01;16.80;93.30
32201;DHT22;18701;45.588;5.288;2024-03-07T12:27:28;16.70;92.90
32201;DHT22;18701;45.588;5.288;2024-03-07T12:29:54;17.00;93.50
32201;DHT22;18701;45.588;5.288;2024-03-07T12:32:20;17.30;92.30
32201;DHT22;18701;45.588;5.288;2024-03-07T12:34:46;17.30;91.40
32201;DHT22;18701;45.588;5.288;2024-03-07T12:37:13;17.10;91.70
32201;DHT22;18701;45.588;5.288;2024-03-07T12:39:45;17.00;91.60
32201;DHT22;18701;45.588;5.288;2024-03-07T12:42:18;17.30;91.20
32201;DHT22;18701;45.588;5.288;2024-03-07T12:44:45;17.70;90.70
32201;DHT22;18701;45.588;5.288;2024-03-07T12:47:15;17.90;90.00
32201;DHT22;18701;45.588;5.288;2024-03-07T12:49:41;18.30;89.60
32201;DHT22;18701;45.588;5.288;2024-03-07T12:52:07;18.70;90.20
32201;DHT22;18701;45.588;5.288;2024-03-07T12:54:37;18.50;90.00
32201;DHT22;18701;45.588;5.288;2024-03-07T12:57:11;18.90;88.90
32201;DHT22;18701;45.588;5.288;2024-03-07T12:59:40;19.10;88.40
32201;DHT22;18701;45.588;5.288;2024-03-07T13:02:10;19.20;87.90
32201;DHT22;18701;45.588;5.288;2024-03-07T13:04:36;19.60;86.80
32201;DHT22;18701;45.588;5.288;2024-03-07T13:07:06;20.00;85.80
32201;DHT22;18701;45.588;5.288;2024-03-07T13:09:34;20.10;84.60
32201;DHT22;18701;45.588;5.288;2024-03-07T13:12:01;19.70;84.80
32201;DHT22;18701;45.588;5.288;2024-03-07T13:14:33;19.40;81.40
32201;DHT22;18701;45.588;5.288;2024-03-07T13:17:05;19.20;81.00
32201;DHT22;18701;45.588;5.288;2024-03-07T13:19:32;19.30;81.70
32201;DHT22;18701;45.588;5.288;2024-03-07T13:21:58;19.80;81.00
32201;DHT22;18701;45.588;5.288;2024-03-07T13:24:25;19.70;81.00
32201;DHT22;18701;45.588;5.288;2024-03-07T13:26:51;19.90;80.10
32201;DHT22;18701;45.588;5.288;2024-03-07T13:29:17;20.10;79.50
32201;DHT22;18701;45.588;5.288;2024-03-07T13:31:49;20.10;78.60
32201;DHT22;18701;45.588;5.288;2024-03-07T13:34:15;21.10;77.60
32201;DHT22;18701;45.588;5.288;2024-03-07T13:36:41;20.90;77.20
32201;DHT22;18701;45.588;5.288;2024-03-07T13:39:08;21.90;76.00
32201;DHT22;18701;45.588;5.288;2024-03-07T13:41:46;22.80;73.90
32201;DHT22;18701;45.588;5.288;2024-03-07T13:44:14;23.70;72.70
32201;DHT22;18701;45.588;5.288;2024-03-07T13:46:39;24.30;70.40
32201;DHT22;18701;45.588;5.288;2024-03-07T13:49:05;26.00;68.70
32201;DHT22;18701;45.588;5.288;2024-03-07T13:51:42;29.00;66.30
32201;DHT22;18701;45.588;5.288;2024-03-07T13:54:19;30.00;63.80
32201;DHT22;18701;45.588;5.288;2024-03-07T14:00:13;31.50;58.30
32201;DHT22;18701;45.588;5.288;2024-03-07T14:02:52;32.10;57.00
32201;DHT22;18701;45.588;5.288;2024-03-07T14:16:47;32.80;53.80
32201;DHT22;18701;45.588;5.288;2024-03-07T14:22:22;32.50;52.40
32201;DHT22;18701;45.588;5.288;2024-03-07T14:30:44;31.80;53.20
32201;DHT22;18701;45.588;5.288;2024-03-07T14:33:12;32.10;52.80
32201;DHT22;18701;45.588;5.288;2024-03-07T14:38:27;32.50;52.10
32201;DHT22;18701;45.588;5.288;2024-03-07T14:40:53;32.20;52.10
32201;DHT22;18701;45.588;5.288;2024-03-07T14:43:20;32.10;51.60
32201;DHT22;18701;45.588;5.288;2024-03-07T14:45:46;29.80;51.80
32201;DHT22;18701;45.588;5.288;2024-03-07T14:48:14;31.40;52.80
32201;DHT22;18701;45.588;5.288;2024-03-07T14:50:42;32.00;52.10
32201;DHT22;18701;45.588;5.288;2024-03-07T14:53:11;31.50;50.60
32201;DHT22;18701;45.588;5.288;2024-03-07T14:55:39;32.00;51.20
32201;DHT22;18701;45.588;5.288;2024-03-07T14:58:05;31.90;51.20
32201;DHT22;18701;45.588;5.288;2024-03-07T15:00:38;32.00;51.00
32201;DHT22;18701;45.588;5.288;2024-03-07T15:03:08;32.10;50.80
32201;DHT22;18701;45.588;5.288;2024-03-07T15:05:35;31.50;50.60
32201;DHT22;18701;45.588;5.288;2024-03-07T15:08:02;30.70;50.60
32201;DHT22;18701;45.588;5.288;2024-03-07T15:10:34;31.00;50.90
32201;DHT22;18701;45.588;5.288;2024-03-07T15:13:00;31.70;51.30
32201;DHT22;18701;45.588;5.288;2024-03-07T15:15:26;31.60;50.70
32201;DHT22;18701;45.588;5.288;2024-03-07T15:17:56;31.80;50.40
32201;DHT22;18701;45.588;5.288;2024-03-07T15:20:22;30.80;50.50
32201;DHT22;18701;45.588;5.288;2024-03-07T15:22:58;30.70;50.20
32201;DHT22;18701;45.588;5.288;2024-03-07T15:25:24;30.50;50.40
32201;DHT22;18701;45.588;5.288;2024-03-07T15:27:51;31.60;50.50
32201;DHT22;18701;45.588;5.288;2024-03-07T15:30:19;31.40;51.10
32201;DHT22;18701;45.588;5.288;2024-03-07T15:32:45;31.30;51.00
32201;DHT22;18701;45.588;5.288;2024-03-07T15:35:13;31.10;50.30
32201;DHT22;18701;45.588;5.288;2024-03-07T15:37:49;31.40;50.60
32201;DHT22;18701;45.588;5.288;2024-03-07T15:40:16;31.60;50.60
32201;DHT22;18701;45.588;5.288;2024-03-07T15:42:45;30.50;50.40
32201;DHT22;18701;45.588;5.288;2024-03-07T15:45:20;30.10;50.40
32201;DHT22;18701;45.588;5.288;2024-03-07T15:47:49;31.00;50.30
32201;DHT22;18701;45.588;5.288;2024-03-07T15:50:15;30.80;50.20
32201;DHT22;18701;45.588;5.288;2024-03-07T15:52:48;30.80;50.60
32201;DHT22;18701;45.588;5.288;2024-03-07T15:55:14;31.10;50.40
32201;DHT22;18701;45.588;5.288;2024-03-07T15:57:47;30.20;50.60
32201;DHT22;18701;45.588;5.288;2024-03-07T16:00:16;30.20;50.80
32201;DHT22;18701;45.588;5.288;2024-03-07T16:05:25;29.50;50.70
32201;DHT22;18701;45.588;5.288;2024-03-07T16:07:54;30.30;50.60
32201;DHT22;18701;45.588;5.288;2024-03-07T16:10:22;30.10;50.20
32201;DHT22;18701;45.588;5.288;2024-03-07T16:12:52;29.30;50.70
32201;DHT22;18701;45.588;5.288;2024-03-07T16:15:19;28.00;51.00
32201;DHT22;18701;45.588;5.288;2024-03-07T16:17:51;26.90;52.80
32201;DHT22;18701;45.588;5.288;2024-03-07T16:20:19;27.40;52.90
32201;DHT22;18701;45.588;5.288;2024-03-07T16:22:45;28.20;53.10